createdAt,value
2018-03-25T00:03:58.196Z,27.30
2018-03-25T00:08:02.669Z,22.97
2018-03-25T00:12:05.269Z,24.07
2018-03-25T00:16:07.824Z,23.37
2018-03-25T00:20:11.315Z,19.53
2018-03-25T00:24:13.832Z,18.57
2018-03-25T00:28:17.164Z,20.73
2018-03-25T00:32:19.692Z,18.40
2018-03-25T00:36:23.013Z,15.53
2018-03-25T00:40:25.613Z,15.37
2018-03-25T00:44:28.166Z,16.03
2018-03-25T00:48:30.698Z,17.93
2018-03-25T00:52:34.117Z,22.00
2018-03-25T00:56:36.647Z,19.10
2018-03-25T01:00:39.277Z,19.53
2018-03-25T01:04:42.024Z,17.93
2018-03-25T01:08:44.566Z,19.17
2018-03-25T01:12:51.136Z,18.83
2018-03-25T01:16:53.976Z,17.03
2018-03-25T01:20:57.260Z,15.63
2018-03-25T01:25:00.244Z,16.20
2018-03-25T01:29:02.764Z,17.63
2018-03-25T01:33:05.612Z,14.87
2018-03-25T01:37:08.126Z,14.50
2018-03-25T01:41:11.447Z,14.07
2018-03-25T01:45:14.740Z,15.10
2018-03-25T01:49:17.407Z,15.70
2018-03-25T01:53:20.013Z,14.90
2018-03-25T01:57:22.559Z,14.53
2018-03-25T02:01:25.075Z,14.23
2018-03-25T02:05:27.625Z,14.60
2018-03-25T02:09:32.097Z,15.43
2018-03-25T02:13:34.819Z,15.10
2018-03-25T02:17:37.332Z,15.00
2018-03-25T02:21:39.921Z,14.30
2018-03-25T02:25:42.454Z,13.70
2018-03-25T02:29:50.393Z,14.13
2018-03-25T02:33:52.917Z,13.50
2018-03-25T02:37:56.220Z,12.37
2018-03-25T02:41:58.728Z,14.67
2018-03-25T02:46:01.289Z,14.63
2018-03-25T02:50:03.812Z,13.83
2018-03-25T02:54:06.735Z,12.93
2018-03-25T02:58:09.277Z,11.73
2018-03-25T03:02:12.612Z,13.37
2018-03-25T03:06:15.161Z,12.93
2018-03-25T03:10:17.713Z,12.37
2018-03-25T03:14:21.002Z,13.37
2018-03-25T03:18:23.605Z,15.27
2018-03-25T03:22:26.128Z,18.43
2018-03-25T03:26:28.687Z,16.87
2018-03-25T03:30:31.276Z,17.30
2018-03-25T03:34:33.826Z,15.03
2018-03-25T03:38:36.344Z,12.60
2018-03-25T03:42:38.937Z,12.30
2018-03-25T03:46:42.260Z,13.60
2018-03-25T03:50:44.848Z,12.17
2018-03-25T03:54:47.432Z,12.90
2018-03-25T03:58:50.000Z,12.80
2018-03-25T04:02:53.075Z,13.27
2018-03-25T04:06:55.719Z,13.80
2018-03-25T04:10:58.248Z,12.97
2018-03-25T04:15:00.852Z,12.33
2018-03-25T04:19:04.136Z,13.07
2018-03-25T04:23:07.115Z,13.07
2018-03-25T04:27:09.632Z,14.23
2018-03-25T04:31:12.264Z,13.40
2018-03-25T04:35:14.782Z,12.73
2018-03-25T04:39:17.339Z,11.87
2018-03-25T04:43:19.913Z,12.60
2018-03-25T04:47:23.363Z,13.37
2018-03-25T04:51:25.848Z,13.50
2018-03-25T04:55:31.111Z,12.40
2018-03-25T04:59:34.399Z,13.83
2018-03-25T05:03:37.260Z,12.07
2018-03-25T05:07:39.799Z,13.03
2018-03-25T05:11:42.344Z,13.60
2018-03-25T05:15:44.872Z,12.30
2018-03-25T05:19:49.288Z,11.60
2018-03-25T05:23:51.812Z,11.73
2018-03-25T05:27:54.743Z,14.27
2018-03-25T05:31:58.041Z,14.00
2018-03-25T05:36:00.692Z,12.33
2018-03-25T05:40:03.270Z,11.27
2018-03-25T05:44:06.609Z,12.90
2018-03-25T05:48:13.559Z,11.83
2018-03-25T05:52:16.236Z,11.87
2018-03-25T05:56:18.769Z,11.00
2018-03-25T06:00:22.248Z,12.47
2018-03-25T06:04:25.529Z,12.97
2018-03-25T06:08:28.135Z,12.27
2018-03-25T06:12:30.663Z,14.13
2018-03-25T06:16:33.264Z,13.20
2018-03-25T06:20:35.795Z,14.60
2018-03-25T06:24:38.345Z,12.40
2018-03-25T06:28:40.856Z,12.63
2018-03-25T06:32:43.736Z,11.07
2018-03-25T06:36:46.264Z,12.13
2018-03-25T06:40:48.822Z,11.83
2018-03-25T06:44:52.146Z,11.70
2018-03-25T06:48:55.661Z,12.40
2018-03-25T06:52:58.177Z,12.80
2018-03-25T06:57:01.496Z,12.67
2018-03-25T07:01:06.724Z,15.47
2018-03-25T07:05:09.307Z,13.97
2018-03-25T07:09:12.888Z,13.17
2018-03-25T07:13:15.433Z,13.17
2018-03-25T07:17:19.008Z,13.20
2018-03-25T07:21:26.886Z,14.00
2018-03-25T07:25:30.155Z,14.20
2018-03-25T07:29:32.716Z,12.70
2018-03-25T07:33:36.198Z,15.17
2018-03-25T07:37:39.793Z,16.17
2018-03-25T07:41:43.048Z,16.57
2018-03-25T07:45:45.926Z,17.33
2018-03-25T07:49:48.480Z,16.90
2018-03-25T07:53:51.048Z,17.87
2018-03-25T07:57:54.340Z,14.60
2018-03-25T08:01:59.692Z,12.93
2018-03-25T08:06:02.196Z,12.83
2018-03-25T08:10:05.126Z,13.57
2018-03-25T08:14:08.572Z,12.50
2018-03-25T08:18:11.176Z,12.13
2018-03-25T08:22:13.701Z,12.40
2018-03-25T08:26:16.260Z,12.93
2018-03-25T08:30:19.547Z,15.27
2018-03-25T08:34:22.216Z,12.93
2018-03-25T08:38:26.752Z,13.40
2018-03-25T08:42:30.068Z,13.47
2018-03-25T08:46:33.366Z,15.03
2018-03-25T08:50:36.908Z,15.67
2018-03-25T08:54:39.427Z,14.37
2018-03-25T08:58:44.782Z,14.60
2018-03-25T09:02:48.292Z,15.20
2018-03-25T09:06:50.943Z,14.70
2018-03-25T09:10:56.373Z,15.50
2018-03-25T09:15:00.854Z,15.23
2018-03-25T09:19:04.196Z,16.30
2018-03-25T09:23:08.505Z,17.73
2018-03-25T09:27:11.039Z,15.30
2018-03-25T09:31:14.369Z,16.90
2018-03-25T09:35:18.877Z,16.10
2018-03-25T09:39:24.720Z,15.63
2018-03-25T09:43:32.906Z,16.20
2018-03-25T09:47:38.624Z,16.33
2018-03-25T09:51:41.914Z,15.70
2018-03-25T09:55:44.481Z,16.53
2018-03-25T09:59:47.027Z,16.57
2018-03-25T10:03:52.783Z,15.90
2018-03-25T10:08:08.333Z,16.30
2018-03-25T10:12:12.985Z,17.33
2018-03-25T10:16:18.256Z,18.20
2018-03-25T10:20:20.837Z,15.73
2018-03-25T10:24:23.379Z,16.63
2018-03-25T10:28:26.715Z,16.67
2018-03-25T10:32:31.936Z,16.07
2018-03-25T10:36:34.482Z,16.73
2018-03-25T10:40:37.784Z,18.30
2018-03-25T10:44:42.336Z,30.23
2018-03-25T10:48:45.029Z,17.50
2018-03-25T10:52:47.964Z,17.50
2018-03-25T10:56:52.491Z,42.40
2018-03-25T11:00:55.443Z,16.60
2018-03-25T11:05:03.740Z,17.37
2018-03-25T11:09:09.961Z,17.30
2018-03-25T11:13:17.056Z,16.37
2018-03-25T11:17:19.749Z,16.67
2018-03-25T11:21:23.025Z,15.10
2018-03-25T11:25:26.880Z,16.63
2018-03-25T11:29:31.511Z,19.83
2018-03-25T11:33:34.068Z,29.60
2018-03-25T11:37:37.552Z,18.70
2018-03-25T11:41:40.131Z,16.73
2018-03-25T11:45:45.720Z,16.67
2018-03-25T11:49:48.564Z,15.80
2018-03-25T11:53:51.099Z,16.30
2018-03-25T11:57:54.825Z,16.43
2018-03-25T12:01:58.129Z,14.17
2018-03-25T12:06:00.745Z,15.53
2018-03-25T12:10:03.283Z,14.93
2018-03-25T12:14:05.949Z,15.27
2018-03-25T12:18:09.280Z,15.00
2018-03-25T12:22:12.849Z,16.13
2018-03-25T12:26:16.347Z,15.47
2018-03-25T12:30:18.911Z,15.40
2018-03-25T12:34:23.469Z,14.90
2018-03-25T12:38:26.157Z,16.33
2018-03-25T12:42:28.715Z,16.03
2018-03-25T12:46:31.382Z,16.77
2018-03-25T12:50:38.636Z,14.77
2018-03-25T12:54:41.343Z,16.80
2018-03-25T12:58:43.906Z,15.50
2018-03-25T13:02:46.497Z,16.20
2018-03-25T13:06:49.063Z,16.37
2018-03-25T13:10:52.532Z,16.73
2018-03-25T13:14:56.140Z,16.83
2018-03-25T13:18:59.816Z,15.97
2018-03-25T13:23:02.367Z,13.73
2018-03-25T13:27:05.343Z,15.40
2018-03-25T13:31:08.115Z,15.57
2018-03-25T13:35:10.691Z,15.40
2018-03-25T13:39:13.302Z,15.33
2018-03-25T13:43:15.904Z,15.27
2018-03-25T13:47:18.453Z,15.73
2018-03-25T13:51:21.099Z,15.53
2018-03-25T13:55:23.693Z,15.63
2018-03-25T13:59:31.973Z,16.43
2018-03-25T14:03:34.500Z,15.33
2018-03-25T14:07:39.140Z,15.93
2018-03-25T14:11:41.672Z,15.63
2018-03-25T14:15:48.074Z,15.80
2018-03-25T14:19:51.368Z,15.53
2018-03-25T14:23:53.950Z,14.63
2018-03-25T14:27:56.721Z,15.53
2018-03-25T14:31:59.304Z,17.67
2018-03-25T14:36:01.831Z,15.13
2018-03-25T14:40:05.194Z,15.67
2018-03-25T14:44:07.727Z,14.50
2018-03-25T14:48:10.296Z,14.23
2018-03-25T14:52:12.969Z,15.30
2018-03-25T14:56:17.536Z,13.97
2018-03-25T15:00:20.834Z,15.13
2018-03-25T15:04:23.396Z,15.10
2018-03-25T15:08:26.008Z,14.90
2018-03-25T15:12:29.588Z,15.57
2018-03-25T15:16:33.095Z,15.03
2018-03-25T15:20:35.644Z,14.53
2018-03-25T15:24:38.929Z,14.50
2018-03-25T15:28:42.646Z,14.20
2018-03-25T15:32:45.216Z,14.63
2018-03-25T15:36:54.186Z,15.13
2018-03-25T15:40:57.530Z,13.47
2018-03-25T15:45:00.199Z,15.30
2018-03-25T15:49:07.046Z,14.53
2018-03-25T15:53:09.609Z,14.73
2018-03-25T15:57:13.171Z,40.97
2018-03-25T16:01:15.748Z,14.50
2018-03-25T16:05:19.040Z,13.90
2018-03-25T16:09:27.488Z,14.90
2018-03-25T16:13:31.049Z,13.80
2018-03-25T16:17:33.633Z,13.97
2018-03-25T16:21:39.930Z,13.90
2018-03-25T16:25:42.552Z,14.13
2018-03-25T16:29:45.091Z,15.17
2018-03-25T16:33:48.177Z,15.50
2018-03-25T16:37:52.668Z,13.40
2018-03-25T16:41:56.344Z,12.50
2018-03-25T16:46:00.677Z,13.13
2018-03-25T16:50:04.097Z,13.43
2018-03-25T16:54:07.834Z,13.60
2018-03-25T16:58:11.157Z,15.87
2018-03-25T17:02:16.380Z,13.90
2018-03-25T17:06:19.031Z,12.97
2018-03-25T17:10:26.723Z,14.80
2018-03-25T17:14:29.324Z,15.30
2018-03-25T17:18:31.942Z,14.33
2018-03-25T17:22:34.613Z,14.03
2018-03-25T17:26:37.175Z,15.40
2018-03-25T17:30:39.774Z,12.63
2018-03-25T17:34:44.198Z,15.27
2018-03-25T17:38:46.904Z,13.83
2018-03-25T17:42:49.568Z,14.27
2018-03-25T17:46:57.216Z,15.03
2018-03-25T17:50:59.776Z,14.07
2018-03-25T17:55:02.504Z,15.67
2018-03-25T17:59:06.276Z,14.90
2018-03-25T18:03:08.840Z,13.43
2018-03-25T18:07:12.132Z,12.80
2018-03-25T18:11:14.852Z,11.80
2018-03-25T18:15:17.397Z,13.17
2018-03-25T18:19:20.124Z,15.00
2018-03-25T18:23:22.650Z,15.47
2018-03-25T18:27:25.216Z,12.90
2018-03-25T18:31:27.744Z,13.60
2018-03-25T18:35:30.425Z,13.73
2018-03-25T18:39:33.751Z,14.03
2018-03-25T18:43:37.290Z,14.53
2018-03-25T18:47:39.849Z,15.93
2018-03-25T18:51:42.427Z,15.10
2018-03-25T18:55:45.133Z,24.33
2018-03-25T18:59:52.388Z,17.70
2018-03-25T19:03:59.680Z,15.67
2018-03-25T19:08:03.256Z,13.33
2018-03-25T19:12:06.574Z,14.87
2018-03-25T19:16:10.302Z,14.33
2018-03-25T19:20:12.848Z,14.67
2018-03-25T19:24:15.484Z,13.37
2018-03-25T19:28:18.005Z,13.50
2018-03-25T19:32:20.609Z,13.43
2018-03-25T19:36:24.125Z,12.67
2018-03-25T19:40:26.724Z,13.10
2018-03-25T19:44:29.262Z,13.20
2018-03-25T19:48:32.884Z,12.33
2018-03-25T19:52:35.407Z,13.77
2018-03-25T19:56:39.752Z,14.17
2018-03-25T20:00:43.049Z,14.63
2018-03-25T20:04:45.620Z,18.40
2018-03-25T20:08:48.145Z,20.20
2018-03-25T20:12:50.704Z,19.63
2018-03-25T20:16:54.042Z,21.07
2018-03-25T20:20:58.570Z,20.90
2018-03-25T20:25:01.111Z,21.77
2018-03-25T20:29:03.660Z,23.10
2018-03-25T20:33:06.197Z,21.20
2018-03-25T20:37:09.536Z,22.77
2018-03-25T20:41:12.056Z,22.93
2018-03-25T20:45:14.617Z,23.23
2018-03-25T20:49:17.128Z,22.73
2018-03-25T20:53:19.685Z,22.17
2018-03-25T20:57:24.467Z,22.27
2018-03-25T21:01:27.312Z,23.13
2018-03-25T21:05:30.599Z,24.43
2018-03-25T21:09:33.172Z,23.80
2018-03-25T21:13:35.705Z,24.13
2018-03-25T21:17:38.249Z,23.87
2018-03-25T21:21:42.561Z,24.47
2018-03-25T21:25:45.171Z,26.17
2018-03-25T21:29:47.735Z,24.77
2018-03-25T21:33:50.287Z,25.07
2018-03-25T21:37:53.828Z,24.67
2018-03-25T21:41:58.380Z,25.03
2018-03-25T21:46:00.912Z,26.73
2018-03-25T21:50:04.223Z,25.70
2018-03-25T21:54:07.520Z,25.03
2018-03-25T21:58:11.218Z,30.43
2018-03-25T22:02:13.736Z,29.70
2018-03-25T22:06:16.585Z,26.53
2018-03-25T22:10:19.109Z,26.03
2018-03-25T22:14:22.435Z,24.00
2018-03-25T22:18:30.640Z,26.37
2018-03-25T22:22:33.612Z,26.63
2018-03-25T22:26:38.086Z,23.53
2018-03-25T22:30:40.702Z,27.90
2018-03-25T22:34:43.220Z,25.27
2018-03-25T22:38:45.780Z,25.63
2018-03-25T22:42:48.299Z,24.63
2018-03-25T22:46:50.840Z,24.40
2018-03-25T22:50:53.366Z,24.67
2018-03-25T22:54:55.924Z,25.57
2018-03-25T22:58:58.565Z,24.83
2018-03-25T23:03:01.142Z,24.30
2018-03-25T23:07:04.675Z,25.83
2018-03-25T23:11:07.345Z,26.87
2018-03-25T23:15:09.884Z,26.20
2018-03-25T23:19:12.524Z,25.30
2018-03-25T23:23:15.055Z,26.37
2018-03-25T23:27:17.625Z,27.10
2018-03-25T23:31:20.164Z,26.37
2018-03-25T23:35:23.476Z,24.40
2018-03-25T23:39:25.996Z,26.07
2018-03-25T23:43:29.308Z,25.10
2018-03-25T23:47:35.976Z,25.97
2018-03-25T23:51:38.608Z,26.07
2018-03-25T23:55:41.145Z,24.73
2018-03-25T23:59:43.683Z,26.07
